Time;durP1;ratioP1;P1;durP2;ratioP2;P2;SDS_P1;SDS_P2;PMS_P1;PMS_P2;Temp;Humidity;BMP_temperature;BMP_pressure;BME280_temperature;BME280_humidity;BME280_pressure;Samples;Min_cycle;Max_cycle;Signal;HPM_P1;HPM_P2
2023/09/09 00:01:58;;;;;;;9.50;4.70;;;;;;;22.75;75.70;99859.97;5015470;28;20666;-65
2023/09/09 00:04:25;;;;;;;8.90;4.40;;;;;;;22.76;75.62;99864.34;5015158;28;20688;-65
2023/09/09 00:06:51;;;;;;;5.33;4.20;;;;;;;22.75;75.66;99859.97;5016786;28;20195;-65
2023/09/09 00:09:18;;;;;;;7.97;4.20;;;;;;;22.72;75.75;99865.94;5035284;28;20280;-64
2023/09/09 00:11:45;;;;;;;7.33;4.30;;;;;;;22.73;75.95;99864.84;5035492;28;20252;-65
2023/09/09 00:14:12;;;;;;;4.90;4.50;;;;;;;22.70;76.17;99868.09;5035257;28;20248;-65
2023/09/09 00:16:40;;;;;;;7.50;4.47;;;;;;;22.65;76.83;99853.72;5035579;28;20202;-65
2023/09/09 00:19:06;;;;;;;5.40;4.83;;;;;;;22.57;77.36;99855.03;5035238;28;20253;-65
2023/09/09 00:21:34;;;;;;;7.83;4.50;;;;;;;22.35;77.48;99853.56;5034898;28;20228;-65
2023/09/09 00:24:01;;;;;;;5.73;4.60;;;;;;;22.19;78.73;99844.56;5034641;28;20189;-65
2023/09/09 00:26:28;;;;;;;10.00;4.83;;;;;;;21.96;79.33;99844.94;5034795;28;20667;-65
2023/09/09 00:28:55;;;;;;;5.77;5.23;;;;;;;21.89;80.00;99838.94;5035005;28;20195;-65
2023/09/09 00:31:21;;;;;;;7.00;5.40;;;;;;;21.82;79.78;99842.97;5034672;28;20259;-65
2023/09/09 00:33:50;;;;;;;6.23;5.00;;;;;;;21.74;80.57;99836.16;5035092;28;20225;-65
2023/09/09 00:36:16;;;;;;;6.57;6.00;;;;;;;21.70;80.99;99835.03;5034938;28;20194;-65
2023/09/09 00:38:43;;;;;;;6.80;5.30;;;;;;;21.67;80.60;99840.94;5034980;28;20202;-65
2023/09/09 00:41:12;;;;;;;9.57;5.90;;;;;;;21.54;81.11;99844.09;5034669;28;20197;-65
2023/09/09 00:43:39;;;;;;;6.27;5.63;;;;;;;21.51;81.95;99850.00;5034415;28;20285;-65
2023/09/09 00:46:06;;;;;;;7.60;5.87;;;;;;;21.49;82.08;99844.06;5034771;28;20255;-65
2023/09/09 00:48:33;;;;;;;8.27;6.00;;;;;;;21.50;82.15;99840.25;5034477;28;20197;-65
2023/09/09 00:51:01;;;;;;;6.30;5.73;;;;;;;21.48;82.51;99847.00;5034097;28;20221;-65
2023/09/09 00:53:28;;;;;;;6.87;5.37;;;;;;;21.44;82.53;99841.28;5033652;28;20194;-65
2023/09/09 00:55:56;;;;;;;10.03;5.60;;;;;;;21.38;82.44;99834.22;5033744;28;20193;-65
2023/09/09 00:58:23;;;;;;;9.83;5.57;;;;;;;21.38;82.78;99830.69;5033645;28;20256;-65
2023/09/09 01:00:50;;;;;;;5.77;5.27;;;;;;;21.39;82.93;99835.03;5033990;28;20669;-65
2023/09/09 01:03:17;;;;;;;6.53;5.43;;;;;;;21.38;82.99;99836.91;5034034;28;20542;-66
2023/09/09 01:05:43;;;;;;;6.10;5.60;;;;;;;21.27;83.67;99834.41;5034067;28;20198;-64
2023/09/09 01:08:12;;;;;;;6.10;5.40;;;;;;;21.21;84.29;99830.81;5021144;28;20198;-65
2023/09/09 01:10:38;;;;;;;5.93;5.20;;;;;;;21.16;84.65;99825.38;5014365;28;20232;-64
2023/09/09 01:13:05;;;;;;;7.10;5.70;;;;;;;21.14;84.18;99830.22;5014169;28;20665;-64
2023/09/09 01:15:32;;;;;;;6.00;5.50;;;;;;;21.19;85.01;99819.44;5014286;28;20265;-65
2023/09/09 01:18:00;;;;;;;7.20;6.30;;;;;;;21.20;85.02;99810.28;5014137;28;20194;-65
2023/09/09 01:20:29;;;;;;;6.17;5.57;;;;;;;21.25;84.99;99812.19;5013898;28;20688;-65
2023/09/09 01:22:57;;;;;;;6.63;5.20;;;;;;;21.27;84.51;99805.47;5014212;28;20264;-64
2023/09/09 01:25:24;;;;;;;8.73;6.03;;;;;;;21.26;84.83;99813.81;5014129;28;20264;-65
2023/09/09 01:27:50;;;;;;;5.90;5.47;;;;;;;21.25;84.75;99810.31;5014110;28;20198;-64
2023/09/09 01:30:17;;;;;;;7.47;5.37;;;;;;;21.29;85.02;99810.63;5013892;28;20225;-65
2023/09/09 01:32:44;;;;;;;7.93;5.43;;;;;;;21.29;84.63;99811.44;5013636;28;20222;-64
2023/09/09 01:35:10;;;;;;;10.37;5.40;;;;;;;21.38;84.52;99809.88;5013918;28;20187;-65
2023/09/09 01:37:37;;;;;;;9.30;5.07;;;;;;;21.43;83.92;99817.22;5013478;28;20194;-64
2023/09/09 01:40:10;;;;;;;5.73;5.20;;;;;;;21.40;83.35;99813.13;5013290;28;20209;-64
2023/09/09 01:42:37;;;;;;;9.77;5.77;;;;;;;21.40;83.61;99815.03;5014172;28;20186;-64
2023/09/09 01:45:05;;;;;;;12.70;5.13;;;;;;;21.36;83.19;99811.22;5013595;28;20229;-65
2023/09/09 01:47:31;;;;;;;5.63;5.13;;;;;;;21.24;83.40;99808.69;5013843;28;20414;-64
2023/09/09 01:49:58;;;;;;;5.03;4.57;;;;;;;21.20;84.42;99806.75;5013551;28;20284;-65
2023/09/09 01:52:25;;;;;;;8.03;5.30;;;;;;;21.23;84.45;99811.66;5013197;28;20233;-64
2023/09/09 01:54:52;;;;;;;8.77;5.10;;;;;;;21.30;84.20;99813.06;5013748;28;20618;-64
2023/09/09 01:57:21;;;;;;;8.37;5.20;;;;;;;21.26;84.21;99811.13;5013488;28;20252;-65
2023/09/09 01:59:48;;;;;;;10.20;5.70;;;;;;;21.38;83.83;99823.41;5013052;28;20249;-64
2023/09/09 02:02:16;;;;;;;9.00;6.20;;;;;;;21.41;83.64;99820.19;5013614;28;20290;-64
2023/09/09 02:04:43;;;;;;;8.67;5.13;;;;;;;21.46;83.62;99816.69;5013564;28;20193;-65
2023/09/09 02:07:09;;;;;;;5.57;5.00;;;;;;;21.48;83.39;99811.88;5017195;28;20244;-65
2023/09/09 02:09:36;;;;;;;4.90;4.50;;;;;;;21.49;83.56;99827.84;5032752;28;20700;-65
2023/09/09 02:12:04;;;;;;;5.10;4.67;;;;;;;21.46;83.52;99812.13;5033176;28;20201;-64
2023/09/09 02:14:32;;;;;;;8.07;4.97;;;;;;;21.50;83.78;99813.22;5032891;28;20285;-65
2023/09/09 02:16:58;;;;;;;11.30;5.40;;;;;;;21.56;83.74;99823.00;5032633;28;20193;-65
2023/09/09 02:19:25;;;;;;;6.90;5.40;;;;;;;21.57;83.60;99813.84;5031716;28;20197;-65
2023/09/09 02:21:52;;;;;;;5.43;4.93;;;;;;;21.58;83.79;99810.03;5032968;28;20200;-64
2023/09/09 02:24:19;;;;;;;5.73;5.23;;;;;;;21.57;83.58;99813.84;5032823;28;20258;-64
2023/09/09 02:26:45;;;;;;;6.67;4.73;;;;;;;21.58;83.76;99804.63;5032813;28;20193;-64
2023/09/09 02:29:12;;;;;;;7.83;5.70;;;;;;;21.57;83.96;99813.00;5032766;28;20256;-65
2023/09/09 02:31:40;;;;;;;7.87;5.50;;;;;;;21.53;83.88;99804.63;5032640;28;20217;-65
2023/09/09 02:34:07;;;;;;;7.00;5.20;;;;;;;21.52;84.09;99816.47;5033231;28;20261;-65
2023/09/09 02:36:34;;;;;;;5.37;5.00;;;;;;;21.50;84.20;99820.50;5032141;28;20193;-64
2023/09/09 02:39:00;;;;;;;7.77;5.93;;;;;;;21.47;84.17;99813.75;5032378;28;20251;-64
2023/09/09 02:41:35;;;;;;;5.77;5.37;;;;;;;21.44;84.72;99814.25;5109379;27;20553;-66
2023/09/09 02:44:02;;;;;;;6.63;5.90;;;;;;;21.41;84.78;99812.09;5109808;28;20252;-65
2023/09/09 02:46:28;;;;;;;9.30;5.80;;;;;;;21.41;84.93;99819.38;5109450;28;20195;-65
2023/09/09 02:48:55;;;;;;;11.23;5.23;;;;;;;21.36;84.78;99814.72;5109134;28;20191;-65
2023/09/09 02:51:22;;;;;;;6.53;5.07;;;;;;;21.32;84.84;99820.91;5109303;28;20226;-66
2023/09/09 02:53:48;;;;;;;6.30;5.00;;;;;;;21.29;85.10;99813.31;5109368;28;20191;-63
2023/09/09 02:56:15;;;;;;;11.13;5.83;;;;;;;21.28;85.19;99809.00;5108783;28;20190;-65
2023/09/09 02:58:43;;;;;;;6.90;5.30;;;;;;;21.22;85.71;99805.44;5109039;28;20194;-65
2023/09/09 03:01:10;;;;;;;7.77;5.47;;;;;;;21.22;85.97;99810.81;5108836;28;20542;-65
2023/09/09 03:03:36;;;;;;;6.63;5.57;;;;;;;21.17;85.63;99808.09;5108960;28;20240;-65
2023/09/09 03:06:03;;;;;;;8.77;5.90;;;;;;;21.15;85.66;99798.63;5109047;28;20551;-66
2023/09/09 03:08:30;;;;;;;8.30;5.90;;;;;;;21.09;85.90;99803.16;5108423;28;20191;-65
2023/09/09 03:10:57;;;;;;;10.67;6.07;;;;;;;21.04;86.18;99802.28;5108741;28;20222;-65
2023/09/09 03:13:23;;;;;;;7.63;5.60;;;;;;;20.99;86.63;99800.34;5108920;28;20191;-65
2023/09/09 03:15:51;;;;;;;8.63;5.67;;;;;;;20.93;86.78;99792.44;5108695;28;20244;-66
2023/09/09 03:18:18;;;;;;;8.67;6.10;;;;;;;20.85;87.07;99799.09;5108409;28;20216;-65
2023/09/09 03:20:45;;;;;;;8.30;5.90;;;;;;;20.82;87.61;99794.19;5108488;28;20201;-66
2023/09/09 03:23:12;;;;;;;7.83;5.83;;;;;;;20.76;87.09;99789.84;5108903;28;20240;-66
2023/09/09 03:25:38;;;;;;;10.77;6.60;;;;;;;20.61;87.41;99786.97;5108889;28;20191;-65
2023/09/09 03:28:05;;;;;;;6.87;6.37;;;;;;;20.45;88.45;99785.16;5108928;28;20252;-65
2023/09/09 03:30:55;;;;;;;6.33;5.73;;;;;;;20.28;90.44;99790.66;5108338;28;20777;-65
2023/09/09 03:33:21;;;;;;;10.53;7.03;;;;;;;20.25;89.56;99783.06;5108192;28;20709;-65
2023/09/09 03:35:48;;;;;;;9.27;7.10;;;;;;;20.12;89.77;99782.59;5108186;28;20730;-65
2023/09/09 03:38:15;;;;;;;7.57;6.70;;;;;;;19.96;90.73;99786.13;5108455;28;20195;-65
2023/09/09 03:40:42;;;;;;;7.97;6.27;;;;;;;19.83;92.21;99789.19;5108493;28;20333;-65
2023/09/09 03:43:09;;;;;;;6.57;6.00;;;;;;;19.74;92.96;99790.69;5108578;28;20232;-65
2023/09/09 03:45:36;;;;;;;9.70;6.90;;;;;;;19.66;92.45;99789.25;5107849;28;20614;-66
2023/09/09 03:48:05;;;;;;;8.83;6.90;;;;;;;19.62;92.47;99798.06;5108020;28;20198;-64
2023/09/09 03:50:31;;;;;;;9.03;7.00;;;;;;;19.66;92.86;99799.19;5108217;28;20214;-64
2023/09/09 03:52:57;;;;;;;7.47;6.40;;;;;;;19.60;92.93;99792.91;5094161;28;20559;-64
2023/09/09 03:55:24;;;;;;;7.53;6.93;;;;;;;19.60;93.15;99800.19;5094298;28;20625;-64
2023/09/09 03:57:51;;;;;;;7.77;6.87;;;;;;;19.60;92.47;99794.81;5094483;28;20248;-64
2023/09/09 04:00:18;;;;;;;7.37;6.63;;;;;;;19.56;93.32;99794.47;5094494;28;20278;-67
2023/09/09 04:02:45;;;;;;;7.47;6.73;;;;;;;19.57;92.75;99796.09;5094659;28;20192;-64
2023/09/09 04:05:14;;;;;;;10.87;6.77;;;;;;;19.58;93.38;99796.91;5094186;28;20675;-65
2023/09/09 04:07:43;;;;;;;6.83;6.23;;;;;;;19.57;93.52;99795.28;5094190;28;20252;-64
2023/09/09 04:10:11;;;;;;;8.23;6.80;;;;;;;19.52;93.68;99797.91;5094422;28;20276;-64
2023/09/09 04:12:37;;;;;;;7.50;6.80;;;;;;;19.58;94.45;99802.31;5094047;28;20199;-64
2023/09/09 04:15:05;;;;;;;10.27;7.20;;;;;;;19.78;94.64;99798.03;5094131;28;20191;-64
2023/09/09 04:17:32;;;;;;;9.50;6.80;;;;;;;20.03;92.71;99795.69;5093966;28;20198;-64
2023/09/09 04:19:58;;;;;;;9.47;6.87;;;;;;;20.32;92.11;99809.84;5093811;28;20579;-64
2023/09/09 04:22:26;;;;;;;8.43;6.53;;;;;;;20.68;90.11;99801.09;5093981;28;20536;-64
2023/09/09 04:24:54;;;;;;;8.33;5.87;;;;;;;21.06;88.46;99811.75;5093711;28;20240;-64
2023/09/09 04:27:20;;;;;;;14.43;6.20;;;;;;;21.47;86.32;99802.94;5093854;28;20278;-65
2023/09/09 04:29:47;;;;;;;14.90;6.33;;;;;;;21.91;84.26;99817.03;5093357;28;20199;-65
2023/09/09 04:32:14;;;;;;;6.37;5.73;;;;;;;22.31;82.59;99817.28;5093667;28;20595;-66
2023/09/09 04:34:41;;;;;;;5.97;5.37;;;;;;;22.71;79.49;99820.16;5093860;28;20244;-65
2023/09/09 04:37:08;;;;;;;11.47;6.53;;;;;;;23.08;79.22;99821.56;5093297;28;20196;-66
2023/09/09 04:39:36;;;;;;;10.23;5.70;;;;;;;23.41;75.65;99831.97;5093343;28;20196;-66
2023/09/09 04:42:02;;;;;;;8.33;5.40;;;;;;;23.61;74.31;99831.13;5093238;28;20618;-66
2023/09/09 04:44:29;;;;;;;12.70;5.20;;;;;;;23.75;74.56;99822.16;5093146;28;20246;-66
2023/09/09 04:46:56;;;;;;;12.70;5.80;;;;;;;23.88;72.40;99827.03;5092772;28;20664;-66
2023/09/09 04:49:22;;;;;;;12.80;4.90;;;;;;;24.04;71.94;99836.81;5093186;28;20700;-66
2023/09/09 04:51:49;;;;;;;7.90;5.00;;;;;;;24.20;71.15;99835.66;5092855;28;20225;-66
2023/09/09 04:54:18;;;;;;;8.70;4.97;;;;;;;24.35;71.04;99827.47;5093125;28;20739;-66
2023/09/09 04:56:46;;;;;;;11.63;5.63;;;;;;;24.62;69.51;99833.38;5092712;28;20696;-67
2023/09/09 04:59:13;;;;;;;17.17;5.90;;;;;;;24.90;68.50;99827.22;5092958;28;20205;-67
2023/09/09 05:01:40;;;;;;;7.27;5.70;;;;;;;25.17;67.16;99831.41;5093110;28;20206;-67
2023/09/09 05:04:07;;;;;;;10.10;5.10;;;;;;;25.38;66.66;99830.19;5092189;28;20252;-67
2023/09/09 05:06:34;;;;;;;16.43;5.50;;;;;;;25.82;65.90;99834.44;5092671;28;20206;-67
2023/09/09 05:09:00;;;;;;;11.10;5.07;;;;;;;26.27;64.21;99835.88;5092796;28;20191;-67
2023/09/09 05:11:27;;;;;;;8.37;5.50;;;;;;;26.59;61.47;99831.44;5092519;28;20284;-67
2023/09/09 05:13:55;;;;;;;5.17;4.77;;;;;;;26.90;60.77;99837.31;5092712;28;20250;-67
2023/09/09 05:16:22;;;;;;;12.10;5.73;;;;;;;27.22;59.42;99840.09;5092853;28;20616;-65
2023/09/09 05:18:48;;;;;;;5.80;4.37;;;;;;;27.48;58.84;99836.69;5092846;28;20195;-66
2023/09/09 05:21:15;;;;;;;5.47;4.70;;;;;;;27.50;57.20;99842.66;5092784;28;20191;-66
2023/09/09 05:23:42;;;;;;;5.97;5.00;;;;;;;27.56;57.42;99843.41;5092862;28;20253;-65
2023/09/09 05:26:09;;;;;;;5.80;4.93;;;;;;;27.48;57.10;99839.41;5092807;28;20253;-66
2023/09/09 05:28:35;;;;;;;5.50;4.37;;;;;;;27.62;56.97;99832.09;5092391;28;20252;-67
2023/09/09 05:31:07;;;;;;;8.80;5.43;;;;;;;27.31;57.49;99838.34;5092207;28;20670;-66
2023/09/09 05:33:33;;;;;;;5.90;5.30;;;;;;;27.32;57.97;99838.03;5092258;28;20184;-66
2023/09/09 05:36:00;;;;;;;10.13;5.53;;;;;;;27.55;57.81;99844.50;5092292;28;20662;-68
2023/09/09 05:38:29;;;;;;;5.70;4.17;;;;;;;27.84;56.65;99837.72;5092431;28;20195;-67
2023/09/09 05:40:56;;;;;;;8.13;4.83;;;;;;;27.72;56.88;99844.78;5092415;28;20798;-67
2023/09/09 05:43:23;;;;;;;7.90;4.47;;;;;;;27.80;57.89;99839.41;5092374;28;20191;-67
2023/09/09 05:45:49;;;;;;;13.00;4.93;;;;;;;28.44;56.18;99838.53;5092070;28;20572;-67
2023/09/09 05:48:17;;;;;;;9.70;5.23;;;;;;;28.85;54.27;99836.56;5092311;28;20250;-68
2023/09/09 05:50:44;;;;;;;11.83;4.93;;;;;;;29.17;53.65;99839.13;5091571;28;20215;-68
2023/09/09 05:53:11;;;;;;;7.90;4.90;;;;;;;29.58;51.47;99834.31;5091914;28;20731;-68
2023/09/09 05:55:38;;;;;;;4.93;4.50;;;;;;;29.65;51.06;99829.22;5092176;28;20655;-68
2023/09/09 05:58:05;;;;;;;12.40;5.20;;;;;;;29.56;51.12;99831.03;5091840;28;20199;-68
2023/09/09 06:00:32;;;;;;;7.33;4.33;;;;;;;29.99;50.62;99829.41;5092152;28;20230;-68
2023/09/09 06:02:58;;;;;;;7.57;4.30;;;;;;;30.50;49.62;99831.56;5091803;28;20199;-68
2023/09/09 06:05:27;;;;;;;8.10;4.20;;;;;;;30.46;49.70;99828.63;5091159;28;20195;-68
2023/09/09 06:07:54;;;;;;;7.23;4.83;;;;;;;30.71;48.15;99825.22;5091350;28;20328;-68
2023/09/09 06:10:20;;;;;;;13.53;5.83;;;;;;;30.83;47.64;99825.38;5091689;28;20602;-68
2023/09/09 06:12:47;;;;;;;8.20;4.97;;;;;;;30.86;47.24;99832.97;5091316;28;20194;-68
2023/09/09 06:15:14;;;;;;;8.37;4.40;;;;;;;31.13;46.85;99829.13;5091338;28;20245;-68
2023/09/09 06:17:41;;;;;;;9.00;4.53;;;;;;;30.80;46.63;99817.78;5091290;28;20690;-68
2023/09/09 06:20:09;;;;;;;5.20;4.70;;;;;;;30.68;47.22;99831.28;5090251;28;20192;-68
2023/09/09 06:22:37;;;;;;;4.97;4.63;;;;;;;30.47;48.36;99832.19;5091652;28;20199;-68
2023/09/09 06:25:05;;;;;;;8.30;4.57;;;;;;;30.51;47.16;99831.25;5092045;28;20256;-68
2023/09/09 06:27:31;;;;;;;5.20;4.67;;;;;;;29.96;49.01;99826.50;5091586;28;20223;-68
2023/09/09 06:29:58;;;;;;;11.13;4.57;;;;;;;30.13;49.10;99834.78;5092015;28;20187;-68
2023/09/09 06:32:25;;;;;;;5.07;4.67;;;;;;;30.22;48.38;99831.00;5091682;28;20223;-68
2023/09/09 06:34:51;;;;;;;5.27;4.73;;;;;;;30.15;47.51;99822.41;5091731;28;20261;-68
2023/09/09 06:37:18;;;;;;;6.23;4.60;;;;;;;30.05;47.97;99830.88;5091026;28;20191;-68
2023/09/09 06:39:46;;;;;;;7.20;4.50;;;;;;;29.88;48.09;99833.53;5091622;28;20299;-68
2023/09/09 06:42:14;;;;;;;6.20;3.80;;;;;;;29.67;49.30;99829.69;5091200;28;20187;-68
2023/09/09 06:44:41;;;;;;;9.93;4.77;;;;;;;29.83;49.22;99830.94;5091296;28;20194;-68
2023/09/09 06:47:10;;;;;;;5.43;4.00;;;;;;;29.83;48.36;99839.16;5090978;28;20191;-68
2023/09/09 06:49:36;;;;;;;7.90;4.50;;;;;;;29.83;48.65;99841.88;5091919;28;20565;-68
2023/09/09 06:52:04;;;;;;;9.30;4.33;;;;;;;30.19;47.55;99845.34;5091638;28;20223;-68
2023/09/09 06:54:30;;;;;;;5.43;4.00;;;;;;;30.30;47.49;99832.97;5091186;28;20195;-68
2023/09/09 06:56:58;;;;;;;9.70;4.23;;;;;;;30.81;45.89;99837.78;5091664;28;20256;-68
2023/09/09 06:59:25;;;;;;;10.93;4.00;;;;;;;31.14;44.54;99839.78;5091205;28;20810;-68
2023/09/09 07:01:52;;;;;;;5.23;3.83;;;;;;;31.09;43.82;99844.59;5091116;28;20195;-69
2023/09/09 07:04:19;;;;;;;5.60;4.40;;;;;;;31.09;44.21;99848.16;5090943;28;20728;-68
2023/09/09 07:06:45;;;;;;;6.30;3.60;;;;;;;31.16;44.43;99843.03;5091167;28;20244;-68
2023/09/09 07:09:12;;;;;;;7.50;4.03;;;;;;;31.58;42.51;99844.97;5091276;28;20260;-69
2023/09/09 07:11:39;;;;;;;4.77;4.10;;;;;;;31.65;41.31;99848.00;5091022;28;20214;-68
2023/09/09 07:14:07;;;;;;;12.23;3.87;;;;;;;31.63;41.57;99842.03;5091024;28;20195;-68
2023/09/09 07:16:34;;;;;;;8.80;3.70;;;;;;;31.58;41.35;99847.72;5091030;28;20671;-68
2023/09/09 07:19:01;;;;;;;6.40;3.30;;;;;;;31.27;41.85;99847.06;5091351;28;20195;-68
2023/09/09 07:21:28;;;;;;;6.27;3.60;;;;;;;30.92;43.42;99845.41;5091078;28;20199;-68
2023/09/09 07:23:54;;;;;;;3.70;3.47;;;;;;;31.03;41.37;99838.47;5091136;28;20253;-68
2023/09/09 07:26:21;;;;;;;5.00;3.00;;;;;;;31.16;41.19;99847.69;5091725;28;20199;-69
2023/09/09 07:28:48;;;;;;;4.80;3.50;;;;;;;31.23;41.58;99846.09;5094919;28;20260;-68
2023/09/09 07:31:16;;;;;;;4.67;3.23;;;;;;;31.35;40.90;99845.47;5094578;28;20219;-69
2023/09/09 07:33:42;;;;;;;5.50;3.43;;;;;;;31.28;40.67;99843.19;5094763;28;20623;-69
2023/09/09 07:36:09;;;;;;;4.23;3.10;;;;;;;31.09;40.71;99848.16;5094707;28;20662;-68
2023/09/09 07:38:35;;;;;;;4.50;3.53;;;;;;;31.21;39.42;99845.59;5094903;28;20205;-68
2023/09/09 07:41:03;;;;;;;5.37;3.20;;;;;;;31.36;39.47;99845.13;5095275;28;20284;-68
2023/09/09 07:43:29;;;;;;;4.73;3.20;;;;;;;31.60;39.34;99841.88;5094483;28;20278;-68
2023/09/09 07:45:56;;;;;;;9.70;3.47;;;;;;;32.03;38.74;99831.63;5094332;28;20192;-68
2023/09/09 07:48:24;;;;;;;6.13;2.90;;;;;;;32.17;38.20;99835.75;5094454;28;20269;-68
2023/09/09 07:50:51;;;;;;;5.93;3.27;;;;;;;31.57;39.32;99837.84;5094624;28;20256;-68
2023/09/09 07:53:18;;;;;;;5.43;2.80;;;;;;;31.56;39.32;99836.22;5094324;28;20664;-68
2023/09/09 07:55:48;;;;;;;5.80;3.43;;;;;;;31.94;38.09;99826.16;5094611;28;20248;-68
2023/09/09 07:58:15;;;;;;;21.73;4.07;;;;;;;32.17;36.68;99837.72;5094882;28;20274;-69
2023/09/09 08:00:41;;;;;;;5.57;3.10;;;;;;;32.35;35.20;99840.09;5094771;28;20244;-68
2023/09/09 08:03:10;;;;;;;6.43;3.20;;;;;;;31.86;35.53;99837.16;5094702;28;20260;-68
2023/09/09 08:05:38;;;;;;;3.70;3.37;;;;;;;31.73;36.75;99847.16;5093782;28;20606;-68
2023/09/09 08:08:06;;;;;;;4.73;2.90;;;;;;;31.91;36.16;99843.31;5094199;28;20593;-68
2023/09/09 08:10:32;;;;;;;4.80;3.20;;;;;;;32.06;35.76;99837.25;5093651;28;20674;-68
2023/09/09 08:12:59;;;;;;;3.47;3.17;;;;;;;31.81;36.40;99832.63;5094180;28;20712;-68
2023/09/09 08:15:26;;;;;;;6.90;3.03;;;;;;;31.78;35.87;99840.75;5093748;28;20242;-68
2023/09/09 08:17:53;;;;;;;6.27;2.57;;;;;;;31.56;35.42;99830.72;5093856;28;20192;-68
2023/09/09 08:20:19;;;;;;;8.50;3.17;;;;;;;31.80;35.25;99836.53;5094056;28;20264;-68
2023/09/09 08:22:49;;;;;;;3.27;2.97;;;;;;;31.90;34.10;99832.63;5093542;28;20599;-69
2023/09/09 08:25:16;;;;;;;2.97;2.77;;;;;;;31.63;32.69;99836.53;5093540;28;20218;-68
2023/09/09 08:27:42;;;;;;;5.13;2.90;;;;;;;31.59;33.10;99829.25;5093160;28;20194;-68
2023/09/09 08:30:10;;;;;;;2.80;2.60;;;;;;;31.53;33.28;99825.91;5093667;28;20192;-68
2023/09/09 08:32:36;;;;;;;3.00;2.80;;;;;;;31.84;32.77;99826.50;5093130;28;20215;-68
2023/09/09 08:35:03;;;;;;;4.27;2.90;;;;;;;32.03;33.08;99824.19;5093707;28;20192;-68
2023/09/09 08:37:30;;;;;;;5.17;3.20;;;;;;;32.29;32.79;99822.16;5093197;28;20622;-69
2023/09/09 08:39:58;;;;;;;7.00;2.70;;;;;;;32.54;31.78;99818.47;5093342;28;20239;-68
2023/09/09 08:42:37;;;;;;;6.07;2.80;;;;;;;32.86;30.57;99812.28;5093467;28;20207;-66
2023/09/09 08:45:11;;;;;;;5.72;2.97;;;;;;;33.09;29.35;99815.53;5093376;28;20195;-68
2023/09/09 08:47:40;;;;;;;6.65;3.35;;;;;;;33.30;29.43;99816.31;5093159;28;20710;-69
2023/09/09 08:50:08;;;;;;;3.58;2.30;;;;;;;33.25;28.01;99814.59;5093068;28;20245;-69
2023/09/09 08:52:35;;;;;;;4.30;2.15;;;;;;;33.17;26.89;99804.44;5092854;28;20361;-69
2023/09/09 08:55:04;;;;;;;4.50;2.38;;;;;;;33.25;27.88;99809.06;5092736;28;20575;-69
2023/09/09 08:57:32;;;;;;;3.13;2.80;;;;;;;33.49;27.30;99802.06;5092847;28;20206;-69
2023/09/09 09:00:03;;;;;;;3.00;2.78;;;;;;;33.44;26.14;99808.59;5092786;28;20282;-69
2023/09/09 09:02:30;;;;;;;4.55;4.10;;;;;;;33.23;25.94;99808.59;5092989;28;20191;-68
2023/09/09 09:04:58;;;;;;;6.00;2.50;;;;;;;33.34;26.49;99806.25;5092931;28;20188;-67
2023/09/09 09:07:27;;;;;;;4.63;2.20;;;;;;;33.39;26.30;99802.50;5092818;28;20183;-67
2023/09/09 09:09:54;;;;;;;5.82;2.50;;;;;;;33.48;26.99;99803.22;5092762;28;20202;-67
2023/09/09 09:12:23;;;;;;;5.57;2.40;;;;;;;33.60;26.27;99800.50;5092134;28;20694;-67
2023/09/09 09:14:50;;;;;;;7.68;2.75;;;;;;;33.73;25.25;99807.66;5092504;28;20287;-67
2023/09/09 09:17:17;;;;;;;2.05;1.95;;;;;;;33.73;24.88;99805.72;5091752;28;20248;-67
2023/09/09 09:19:44;;;;;;;6.47;3.25;;;;;;;33.84;24.99;99800.59;5091999;28;20294;-68
2023/09/09 09:22:13;;;;;;;4.07;2.28;;;;;;;33.45;24.95;99801.13;5092193;28;20191;-67
2023/09/09 09:24:43;;;;;;;4.68;2.50;;;;;;;33.19;25.61;99785.63;5092205;28;20198;-66
2023/09/09 09:27:11;;;;;;;5.32;2.45;;;;;;;33.28;24.24;99797.34;5092394;28;20199;-67
2023/09/09 09:29:45;;;;;;;3.33;2.45;;;;;;;32.81;25.22;99789.66;5092222;28;20762;-67
2023/09/09 09:32:12;;;;;;;5.70;2.25;;;;;;;32.87;25.54;99786.38;5092169;28;20246;-67
2023/09/09 09:34:39;;;;;;;6.77;4.97;;;;;;;32.89;24.54;99786.84;5092173;28;20199;-66
2023/09/09 09:37:10;;;;;;;7.65;7.13;;;;;;;33.13;23.85;99788.91;5091915;28;20614;-67
2023/09/09 09:39:38;;;;;;;5.82;5.20;;;;;;;33.25;23.95;99787.03;5091773;28;20298;-69
2023/09/09 09:42:05;;;;;;;10.23;8.68;;;;;;;33.36;23.92;99784.69;5092360;28;20195;-68
2023/09/09 09:44:32;;;;;;;14.15;9.15;;;;;;;33.47;23.94;99782.31;5091796;28;20191;-67
2023/09/09 09:47:03;;;;;;;9.52;6.85;;;;;;;33.68;23.81;99788.56;5092134;28;20260;-67
2023/09/09 09:49:36;;;;;;;4.07;2.58;;;;;;;33.89;22.88;99781.06;5090934;28;20695;-68
2023/09/09 09:52:03;;;;;;;5.25;3.95;;;;;;;33.99;22.71;99781.41;5090875;28;20276;-67
2023/09/09 09:54:31;;;;;;;6.95;3.67;;;;;;;34.01;22.83;99778.31;5091580;28;20562;-67
2023/09/09 09:57:00;;;;;;;4.55;3.08;;;;;;;33.63;22.95;99783.28;5091609;28;20686;-67
2023/09/09 09:59:30;;;;;;;4.15;2.08;;;;;;;33.07;23.44;99771.78;5091509;28;20307;-67
2023/09/09 10:01:57;;;;;;;6.68;2.58;;;;;;;33.09;24.22;99772.28;5091548;28;20278;-68
2023/09/09 10:04:27;;;;;;;3.17;2.95;;;;;;;33.01;23.96;99762.13;5091849;28;20221;-67
2023/09/09 10:06:56;;;;;;;2.47;2.28;;;;;;;32.85;24.21;99768.56;5091177;28;20679;-67
2023/09/09 10:09:29;;;;;;;5.33;3.10;;;;;;;32.67;24.86;99767.09;5091834;28;20235;-67
2023/09/09 10:12:02;;;;;;;3.50;3.25;;;;;;;32.83;24.69;99770.88;5091906;28;20260;-67
2023/09/09 10:14:30;;;;;;;5.95;2.45;;;;;;;32.90;24.39;99755.44;5092090;28;20195;-67
2023/09/09 10:16:58;;;;;;;5.47;2.35;;;;;;;32.87;23.67;99767.09;5091506;28;20564;-67
2023/09/09 10:19:29;;;;;;;2.38;2.20;;;;;;;32.94;24.17;99753.59;5091286;28;20213;-67
2023/09/09 10:21:56;;;;;;;4.60;2.30;;;;;;;33.08;24.78;99759.63;5091280;28;20223;-67
2023/09/09 10:24:23;;;;;;;2.63;2.37;;;;;;;33.16;24.70;99749.69;5091468;28;20282;-67
2023/09/09 10:26:51;;;;;;;4.50;2.87;;;;;;;33.11;23.78;99745.19;5091357;28;20198;-67
2023/09/09 10:29:18;;;;;;;2.38;2.17;;;;;;;32.71;23.03;99746.78;5091648;28;20206;-67
2023/09/09 10:31:45;;;;;;;4.23;2.13;;;;;;;32.00;24.10;99742.38;5091084;28;20240;-67
2023/09/09 10:34:13;;;;;;;6.80;2.53;;;;;;;32.00;25.06;99742.38;5091296;28;20274;-67
2023/09/09 10:36:42;;;;;;;3.53;2.90;;;;;;;31.92;25.20;99732.22;5091052;28;20241;-67
2023/09/09 10:39:10;;;;;;;3.70;2.03;;;;;;;32.10;24.62;99730.97;5091330;28;20191;-67
2023/09/09 10:41:37;;;;;;;3.47;2.40;;;;;;;32.22;24.21;99731.06;5091525;28;20615;-67
2023/09/09 10:44:05;;;;;;;2.73;2.17;;;;;;;31.89;24.24;99732.88;5090967;28;20685;-67
2023/09/09 10:46:37;;;;;;;3.03;2.43;;;;;;;31.64;24.45;99733.75;5091253;28;20324;-67
2023/09/09 10:49:04;;;;;;;2.60;2.20;;;;;;;31.30;24.42;99728.34;5091136;28;20195;-67
2023/09/09 10:51:43;;;;;;;3.37;2.47;;;;;;;31.49;24.29;99719.75;5090949;28;20272;-68
2023/09/09 10:54:14;;;;;;;5.13;2.70;;;;;;;31.64;24.02;99717.25;5090928;28;20581;-67
2023/09/09 10:56:51;;;;;;;5.73;2.23;;;;;;;31.72;23.37;99718.38;5091055;28;20190;-67
2023/09/09 10:59:20;;;;;;;4.57;2.20;;;;;;;31.81;23.90;99717.22;5090686;28;20650;-67
2023/09/09 11:01:49;;;;;;;2.50;2.00;;;;;;;31.96;24.29;99713.09;5092414;28;20195;-67
2023/09/09 11:04:22;;;;;;;3.60;2.27;;;;;;;31.66;24.11;99709.50;5095263;28;20219;-67
2023/09/09 11:07:09;;;;;;;2.63;2.43;;;;;;;31.78;24.13;99703.34;5095242;28;20268;-67
2023/09/09 11:09:37;;;;;;;3.50;2.10;;;;;;;31.93;24.65;99698.09;5095099;28;20249;-67
2023/09/09 11:12:14;;;;;;;3.27;2.13;;;;;;;31.98;23.75;99706.16;5094636;28;20191;-68
2023/09/09 11:14:57;;;;;;;6.77;2.30;;;;;;;32.05;24.77;99700.16;5094971;28;20223;-68
2023/09/09 11:17:23;;;;;;;4.30;2.57;;;;;;;32.22;24.62;99706.31;5094917;28;20187;-68
2023/09/09 11:19:50;;;;;;;6.90;2.60;;;;;;;32.35;23.89;99697.06;5094890;28;20248;-68
2023/09/09 11:22:18;;;;;;;4.70;2.63;;;;;;;32.47;23.59;99697.13;5094522;28;20196;-68
2023/09/09 11:24:46;;;;;;;5.47;2.73;;;;;;;32.26;23.56;99693.53;5094660;28;20699;-68
2023/09/09 11:27:15;;;;;;;2.73;2.20;;;;;;;32.11;24.41;99685.88;5094452;28;20268;-68
2023/09/09 11:29:50;;;;;;;2.67;2.17;;;;;;;32.01;24.08;99686.25;5094162;28;20629;-68
2023/09/09 11:32:25;;;;;;;5.17;2.53;;;;;;;31.91;24.16;99678.38;5094506;28;20211;-68
2023/09/09 11:34:53;;;;;;;3.27;1.90;;;;;;;31.60;23.71;99677.06;5094313;28;20221;-68